sensor_id;sensor_type;location;lat;lon;timestamp;pressure;altitude;pressure_sealevel;temperature
12854;BMP180;6495;51.808;7.478;2023-04-01T00:02:23;98797.00;;;10.50
12854;BMP180;6495;51.808;7.478;2023-04-01T00:05:12;98792.00;;;10.50
12854;BMP180;6495;51.808;7.478;2023-04-01T00:08:01;98794.00;;;10.50
12854;BMP180;6495;51.808;7.478;2023-04-01T00:10:50;98794.00;;;10.40
12854;BMP180;6495;51.808;7.478;2023-04-01T00:13:40;98794.00;;;10.40
12854;BMP180;6495;51.808;7.478;2023-04-01T00:16:29;98779.00;;;10.40
12854;BMP180;6495;51.808;7.478;2023-04-01T00:19:17;98787.00;;;10.40
12854;BMP180;6495;51.808;7.478;2023-04-01T00:22:06;98791.00;;;10.40
12854;BMP180;6495;51.808;7.478;2023-04-01T00:24:58;98785.00;;;10.40
12854;BMP180;6495;51.808;7.478;2023-04-01T00:27:47;98782.00;;;10.40
12854;BMP180;6495;51.808;7.478;2023-04-01T00:30:38;98781.00;;;10.40
12854;BMP180;6495;51.808;7.478;2023-04-01T00:33:27;98783.00;;;10.40
12854;BMP180;6495;51.808;7.478;2023-04-01T00:36:17;98788.00;;;10.40
12854;BMP180;6495;51.808;7.478;2023-04-01T00:39:06;98786.00;;;10.40
12854;BMP180;6495;51.808;7.478;2023-04-01T00:41:55;98776.00;;;10.40
12854;BMP180;6495;51.808;7.478;2023-04-01T00:44:47;98785.00;;;10.40
12854;BMP180;6495;51.808;7.478;2023-04-01T00:47:37;98788.00;;;10.40
12854;BMP180;6495;51.808;7.478;2023-04-01T00:50:28;98779.00;;;10.40
12854;BMP180;6495;51.808;7.478;2023-04-01T00:53:18;98779.00;;;10.30
12854;BMP180;6495;51.808;7.478;2023-04-01T00:56:13;98788.00;;;10.40
12854;BMP180;6495;51.808;7.478;2023-04-01T00:59:06;98774.00;;;10.30
12854;BMP180;6495;51.808;7.478;2023-04-01T01:01:58;98782.00;;;10.30
12854;BMP180;6495;51.808;7.478;2023-04-01T01:04:50;98777.00;;;10.30
12854;BMP180;6495;51.808;7.478;2023-04-01T01:07:56;98779.00;;;10.30
12854;BMP180;6495;51.808;7.478;2023-04-01T01:10:51;98776.00;;;10.30
12854;BMP180;6495;51.808;7.478;2023-04-01T01:13:49;98765.00;;;10.30
12854;BMP180;6495;51.808;7.478;2023-04-01T01:16:45;98767.00;;;10.40
12854;BMP180;6495;51.808;7.478;2023-04-01T01:20:15;98780.00;;;10.40
12854;BMP180;6495;51.808;7.478;2023-04-01T01:23:52;98769.00;;;10.30
12854;BMP180;6495;51.808;7.478;2023-04-01T01:26:57;98774.00;;;10.30
12854;BMP180;6495;51.808;7.478;2023-04-01T01:30:16;98763.00;;;10.30
12854;BMP180;6495;51.808;7.478;2023-04-01T01:33:35;98758.00;;;10.30
12854;BMP180;6495;51.808;7.478;2023-04-01T01:36:32;98768.00;;;10.30
12854;BMP180;6495;51.808;7.478;2023-04-01T01:39:30;98764.00;;;10.30
12854;BMP180;6495;51.808;7.478;2023-04-01T01:42:22;98763.00;;;10.30
12854;BMP180;6495;51.808;7.478;2023-04-01T01:45:16;98766.00;;;10.30
12854;BMP180;6495;51.808;7.478;2023-04-01T01:48:08;98768.00;;;10.20
12854;BMP180;6495;51.808;7.478;2023-04-01T01:50:58;98762.00;;;10.30
12854;BMP180;6495;51.808;7.478;2023-04-01T01:53:49;98771.00;;;10.30
12854;BMP180;6495;51.808;7.478;2023-04-01T01:56:43;98758.00;;;10.30
12854;BMP180;6495;51.808;7.478;2023-04-01T01:59:37;98768.00;;;10.30
12854;BMP180;6495;51.808;7.478;2023-04-01T02:02:28;98769.00;;;10.30
12854;BMP180;6495;51.808;7.478;2023-04-01T02:05:23;98768.00;;;10.30
12854;BMP180;6495;51.808;7.478;2023-04-01T02:08:21;98764.00;;;10.30
12854;BMP180;6495;51.808;7.478;2023-04-01T02:11:16;98767.00;;;10.30
12854;BMP180;6495;51.808;7.478;2023-04-01T02:14:14;98764.00;;;10.30
12854;BMP180;6495;51.808;7.478;2023-04-01T02:17:08;98762.00;;;10.30
12854;BMP180;6495;51.808;7.478;2023-04-01T02:20:02;98756.00;;;10.20
12854;BMP180;6495;51.808;7.478;2023-04-01T02:22:56;98751.00;;;10.20
12854;BMP180;6495;51.808;7.478;2023-04-01T02:25:47;98748.00;;;10.20
12854;BMP180;6495;51.808;7.478;2023-04-01T02:28:39;98748.00;;;10.20
12854;BMP180;6495;51.808;7.478;2023-04-01T02:31:30;98747.00;;;10.20
12854;BMP180;6495;51.808;7.478;2023-04-01T02:34:20;98755.00;;;10.20
12854;BMP180;6495;51.808;7.478;2023-04-01T02:37:11;98743.00;;;10.10
12854;BMP180;6495;51.808;7.478;2023-04-01T02:40:01;98748.00;;;10.10
12854;BMP180;6495;51.808;7.478;2023-04-01T02:42:50;98753.00;;;10.10
12854;BMP180;6495;51.808;7.478;2023-04-01T02:45:40;98753.00;;;10.10
12854;BMP180;6495;51.808;7.478;2023-04-01T02:48:29;98751.00;;;10.20
12854;BMP180;6495;51.808;7.478;2023-04-01T02:51:17;98759.00;;;10.10
12854;BMP180;6495;51.808;7.478;2023-04-01T02:54:07;98748.00;;;10.10
12854;BMP180;6495;51.808;7.478;2023-04-01T02:56:55;98755.00;;;10.10
12854;BMP180;6495;51.808;7.478;2023-04-01T02:59:44;98754.00;;;10.10
12854;BMP180;6495;51.808;7.478;2023-04-01T03:02:34;98753.00;;;10.10
12854;BMP180;6495;51.808;7.478;2023-04-01T03:05:24;98757.00;;;10.10
12854;BMP180;6495;51.808;7.478;2023-04-01T03:08:12;98756.00;;;10.10
12854;BMP180;6495;51.808;7.478;2023-04-01T03:11:02;98757.00;;;10.10
12854;BMP180;6495;51.808;7.478;2023-04-01T03:13:54;98760.00;;;10.10
12854;BMP180;6495;51.808;7.478;2023-04-01T03:16:42;98759.00;;;10.10
12854;BMP180;6495;51.808;7.478;2023-04-01T03:19:33;98763.00;;;10.10
12854;BMP180;6495;51.808;7.478;2023-04-01T03:22:25;98762.00;;;10.10
12854;BMP180;6495;51.808;7.478;2023-04-01T03:25:14;98770.00;;;10.10
12854;BMP180;6495;51.808;7.478;2023-04-01T03:28:03;98763.00;;;10.10
12854;BMP180;6495;51.808;7.478;2023-04-01T03:30:52;98769.00;;;10.10
12854;BMP180;6495;51.808;7.478;2023-04-01T03:33:40;98773.00;;;10.20
12854;BMP180;6495;51.808;7.478;2023-04-01T03:36:30;98769.00;;;10.20
12854;BMP180;6495;51.808;7.478;2023-04-01T03:39:19;98768.00;;;10.20
12854;BMP180;6495;51.808;7.478;2023-04-01T03:42:08;98771.00;;;10.20
12854;BMP180;6495;51.808;7.478;2023-04-01T03:44:56;98770.00;;;10.20
12854;BMP180;6495;51.808;7.478;2023-04-01T03:47:45;98776.00;;;10.20
12854;BMP180;6495;51.808;7.478;2023-04-01T03:50:34;98777.00;;;10.20
12854;BMP180;6495;51.808;7.478;2023-04-01T03:53:25;98782.00;;;10.20
12854;BMP180;6495;51.808;7.478;2023-04-01T03:56:17;98776.00;;;10.20
12854;BMP180;6495;51.808;7.478;2023-04-01T03:59:07;98781.00;;;10.20
12854;BMP180;6495;51.808;7.478;2023-04-01T04:01:56;98782.00;;;10.20
12854;BMP180;6495;51.808;7.478;2023-04-01T04:04:45;98785.00;;;10.20
12854;BMP180;6495;51.808;7.478;2023-04-01T04:07:34;98787.00;;;10.20
12854;BMP180;6495;51.808;7.478;2023-04-01T04:10:27;98801.00;;;10.20
12854;BMP180;6495;51.808;7.478;2023-04-01T04:13:16;98798.00;;;10.20
12854;BMP180;6495;51.808;7.478;2023-04-01T04:16:10;98797.00;;;10.20
12854;BMP180;6495;51.808;7.478;2023-04-01T04:19:04;98799.00;;;10.20
12854;BMP180;6495;51.808;7.478;2023-04-01T04:21:53;98797.00;;;10.20
12854;BMP180;6495;51.808;7.478;2023-04-01T04:24:41;98798.00;;;10.10
12854;BMP180;6495;51.808;7.478;2023-04-01T04:27:34;98799.00;;;10.10
12854;BMP180;6495;51.808;7.478;2023-04-01T04:30:27;98809.00;;;10.10
12854;BMP180;6495;51.808;7.478;2023-04-01T04:33:16;98811.00;;;10.10
12854;BMP180;6495;51.808;7.478;2023-04-01T04:36:05;98808.00;;;10.10
12854;BMP180;6495;51.808;7.478;2023-04-01T04:38:54;98813.00;;;10.10
12854;BMP180;6495;51.808;7.478;2023-04-01T04:41:42;98817.00;;;10.10
12854;BMP180;6495;51.808;7.478;2023-04-01T04:44:32;98818.00;;;10.10
12854;BMP180;6495;51.808;7.478;2023-04-01T04:47:21;98808.00;;;10.10
12854;BMP180;6495;51.808;7.478;2023-04-01T04:50:10;98816.00;;;10.10
12854;BMP180;6495;51.808;7.478;2023-04-01T04:53:00;98820.00;;;10.10
12854;BMP180;6495;51.808;7.478;2023-04-01T04:55:51;98821.00;;;10.10
12854;BMP180;6495;51.808;7.478;2023-04-01T04:58:59;98819.00;;;10.10
12854;BMP180;6495;51.808;7.478;2023-04-01T05:02:01;98829.00;;;10.10
12854;BMP180;6495;51.808;7.478;2023-04-01T05:04:50;98824.00;;;10.20
12854;BMP180;6495;51.808;7.478;2023-04-01T05:07:38;98824.00;;;10.20
12854;BMP180;6495;51.808;7.478;2023-04-01T05:10:27;98829.00;;;10.10
12854;BMP180;6495;51.808;7.478;2023-04-01T05:13:16;98831.00;;;10.10
12854;BMP180;6495;51.808;7.478;2023-04-01T05:16:09;98826.00;;;10.10
12854;BMP180;6495;51.808;7.478;2023-04-01T05:18:59;98829.00;;;10.10
12854;BMP180;6495;51.808;7.478;2023-04-01T05:21:47;98833.00;;;10.20
12854;BMP180;6495;51.808;7.478;2023-04-01T05:24:36;98836.00;;;10.20
12854;BMP180;6495;51.808;7.478;2023-04-01T05:27:25;98839.00;;;10.20
12854;BMP180;6495;51.808;7.478;2023-04-01T05:30:13;98844.00;;;10.20
12854;BMP180;6495;51.808;7.478;2023-04-01T05:33:15;98840.00;;;10.20
12854;BMP180;6495;51.808;7.478;2023-04-01T05:36:10;98838.00;;;10.20
12854;BMP180;6495;51.808;7.478;2023-04-01T05:38:59;98837.00;;;10.20
12854;BMP180;6495;51.808;7.478;2023-04-01T05:41:48;98843.00;;;10.20
12854;BMP180;6495;51.808;7.478;2023-04-01T05:44:37;98838.00;;;10.20
12854;BMP180;6495;51.808;7.478;2023-04-01T05:47:25;98842.00;;;10.20
12854;BMP180;6495;51.808;7.478;2023-04-01T05:50:14;98851.00;;;10.20
12854;BMP180;6495;51.808;7.478;2023-04-01T05:53:04;98850.00;;;10.30
12854;BMP180;6495;51.808;7.478;2023-04-01T05:55:53;98852.00;;;10.30
12854;BMP180;6495;51.808;7.478;2023-04-01T05:58:41;98862.00;;;10.30
12854;BMP180;6495;51.808;7.478;2023-04-01T06:01:30;98861.00;;;10.30
12854;BMP180;6495;51.808;7.478;2023-04-01T06:04:19;98867.00;;;10.30
12854;BMP180;6495;51.808;7.478;2023-04-01T06:07:12;98872.00;;;10.30
12854;BMP180;6495;51.808;7.478;2023-04-01T06:10:10;98860.00;;;10.30
12854;BMP180;6495;51.808;7.478;2023-04-01T06:13:09;98879.00;;;10.30
12854;BMP180;6495;51.808;7.478;2023-04-01T06:16:11;98877.00;;;10.30
12854;BMP180;6495;51.808;7.478;2023-04-01T06:19:17;98877.00;;;10.40
12854;BMP180;6495;51.808;7.478;2023-04-01T06:22:53;98881.00;;;10.40
12854;BMP180;6495;51.808;7.478;2023-04-01T06:26:05;98879.00;;;10.40
12854;BMP180;6495;51.808;7.478;2023-04-01T06:33:00;98899.00;;;10.40
12854;BMP180;6495;51.808;7.478;2023-04-01T06:36:10;98897.00;;;10.40
12854;BMP180;6495;51.808;7.478;2023-04-01T06:42:57;98893.00;;;10.50
12854;BMP180;6495;51.808;7.478;2023-04-01T06:46:16;98890.00;;;10.50
12854;BMP180;6495;51.808;7.478;2023-04-01T06:49:44;98895.00;;;10.50
12854;BMP180;6495;51.808;7.478;2023-04-01T06:53:10;98902.00;;;10.50
12854;BMP180;6495;51.808;7.478;2023-04-01T06:56:25;98903.00;;;10.40
12854;BMP180;6495;51.808;7.478;2023-04-01T06:59:28;98901.00;;;10.40
12854;BMP180;6495;51.808;7.478;2023-04-01T07:02:29;98908.00;;;10.50
12854;BMP180;6495;51.808;7.478;2023-04-01T07:05:20;98910.00;;;10.50
12854;BMP180;6495;51.808;7.478;2023-04-01T07:08:13;98905.00;;;10.50
12854;BMP180;6495;51.808;7.478;2023-04-01T07:11:08;98914.00;;;10.40
12854;BMP180;6495;51.808;7.478;2023-04-01T07:14:28;98913.00;;;10.40
12854;BMP180;6495;51.808;7.478;2023-04-01T07:17:23;98908.00;;;10.50
12854;BMP180;6495;51.808;7.478;2023-04-01T07:20:20;98911.00;;;10.50
12854;BMP180;6495;51.808;7.478;2023-04-01T07:23:21;98917.00;;;10.50
12854;BMP180;6495;51.808;7.478;2023-04-01T07:26:26;98924.00;;;10.50
12854;BMP180;6495;51.808;7.478;2023-04-01T07:29:18;98926.00;;;10.50
12854;BMP180;6495;51.808;7.478;2023-04-01T07:32:30;98936.00;;;10.60
12854;BMP180;6495;51.808;7.478;2023-04-01T07:35:30;98925.00;;;10.60
12854;BMP180;6495;51.808;7.478;2023-04-01T07:38:33;98932.00;;;10.60
12854;BMP180;6495;51.808;7.478;2023-04-01T07:41:32;98934.00;;;10.60
12854;BMP180;6495;51.808;7.478;2023-04-01T07:44:31;98934.00;;;10.60
12854;BMP180;6495;51.808;7.478;2023-04-01T07:47:45;98934.00;;;10.60
12854;BMP180;6495;51.808;7.478;2023-04-01T07:50:44;98946.00;;;10.60
12854;BMP180;6495;51.808;7.478;2023-04-01T07:53:46;98939.00;;;10.70
12854;BMP180;6495;51.808;7.478;2023-04-01T07:56:46;98941.00;;;10.60
12854;BMP180;6495;51.808;7.478;2023-04-01T07:59:58;98943.00;;;10.60
12854;BMP180;6495;51.808;7.478;2023-04-01T08:03:38;98941.00;;;10.60
12854;BMP180;6495;51.808;7.478;2023-04-01T08:06:38;98948.00;;;10.60
12854;BMP180;6495;51.808;7.478;2023-04-01T08:09:42;98948.00;;;10.60
12854;BMP180;6495;51.808;7.478;2023-04-01T08:13:02;98957.00;;;10.60
12854;BMP180;6495;51.808;7.478;2023-04-01T08:16:38;98960.00;;;10.60
12854;BMP180;6495;51.808;7.478;2023-04-01T08:19:58;98965.00;;;10.60
12854;BMP180;6495;51.808;7.478;2023-04-01T08:22:58;98960.00;;;10.60
12854;BMP180;6495;51.808;7.478;2023-04-01T08:26:01;98968.00;;;10.60
12854;BMP180;6495;51.808;7.478;2023-04-01T08:29:02;98970.00;;;10.70
12854;BMP180;6495;51.808;7.478;2023-04-01T08:31:59;98966.00;;;10.70
12854;BMP180;6495;51.808;7.478;2023-04-01T08:35:02;98982.00;;;10.60
12854;BMP180;6495;51.808;7.478;2023-04-01T08:38:04;98976.00;;;10.70
12854;BMP180;6495;51.808;7.478;2023-04-01T08:41:19;98981.00;;;10.80
12854;BMP180;6495;51.808;7.478;2023-04-01T08:45:06;98983.00;;;10.80
12854;BMP180;6495;51.808;7.478;2023-04-01T08:48:52;98985.00;;;10.80
12854;BMP180;6495;51.808;7.478;2023-04-01T08:52:20;98990.00;;;10.80
12854;BMP180;6495;51.808;7.478;2023-04-01T08:55:30;98997.00;;;10.90
12854;BMP180;6495;51.808;7.478;2023-04-01T08:59:16;98995.00;;;10.90
12854;BMP180;6495;51.808;7.478;2023-04-01T09:02:49;99007.00;;;10.90
12854;BMP180;6495;51.808;7.478;2023-04-01T09:09:52;99015.00;;;10.90
12854;BMP180;6495;51.808;7.478;2023-04-01T09:12:59;99010.00;;;10.90
12854;BMP180;6495;51.808;7.478;2023-04-01T09:16:12;99011.00;;;10.90
12854;BMP180;6495;51.808;7.478;2023-04-01T09:19:19;99018.00;;;11.00
12854;BMP180;6495;51.808;7.478;2023-04-01T09:22:28;99017.00;;;11.00
12854;BMP180;6495;51.808;7.478;2023-04-01T09:25:46;99025.00;;;11.00
12854;BMP180;6495;51.808;7.478;2023-04-01T09:28:48;99019.00;;;11.00
12854;BMP180;6495;51.808;7.478;2023-04-01T09:32:27;99021.00;;;11.00
12854;BMP180;6495;51.808;7.478;2023-04-01T09:35:43;99025.00;;;11.10
12854;BMP180;6495;51.808;7.478;2023-04-01T09:38:53;99032.00;;;11.10
12854;BMP180;6495;51.808;7.478;2023-04-01T09:42:01;99024.00;;;11.20
12854;BMP180;6495;51.808;7.478;2023-04-01T09:45:00;99033.00;;;11.20
12854;BMP180;6495;51.808;7.478;2023-04-01T09:48:07;99038.00;;;11.20
12854;BMP180;6495;51.808;7.478;2023-04-01T09:51:06;99033.00;;;11.20
12854;BMP180;6495;51.808;7.478;2023-04-01T09:54:13;99033.00;;;11.30
12854;BMP180;6495;51.808;7.478;2023-04-01T09:57:53;99042.00;;;11.30
12854;BMP180;6495;51.808;7.478;2023-04-01T10:05:44;99044.00;;;11.40
12854;BMP180;6495;51.808;7.478;2023-04-01T10:12:39;99059.00;;;11.40
12854;BMP180;6495;51.808;7.478;2023-04-01T10:16:14;99065.00;;;11.50
12854;BMP180;6495;51.808;7.478;2023-04-01T10:20:19;99062.00;;;11.50
12854;BMP180;6495;51.808;7.478;2023-04-01T10:23:45;99057.00;;;11.60
12854;BMP180;6495;51.808;7.478;2023-04-01T10:27:06;99073.00;;;11.60
12854;BMP180;6495;51.808;7.478;2023-04-01T10:31:14;99065.00;;;11.70
12854;BMP180;6495;51.808;7.478;2023-04-01T10:38:33;99073.00;;;11.80
12854;BMP180;6495;51.808;7.478;2023-04-01T10:42:11;99071.00;;;11.90
12854;BMP180;6495;51.808;7.478;2023-04-01T10:49:44;99073.00;;;12.10
12854;BMP180;6495;51.808;7.478;2023-04-01T10:53:30;99083.00;;;12.10
12854;BMP180;6495;51.808;7.478;2023-04-01T10:56:43;99091.00;;;12.10
12854;BMP180;6495;51.808;7.478;2023-04-01T11:19:29;99113.00;;;13.00
12854;BMP180;6495;51.808;7.478;2023-04-01T11:23:18;99109.00;;;12.90
12854;BMP180;6495;51.808;7.478;2023-04-01T11:26:30;99119.00;;;12.90
12854;BMP180;6495;51.808;7.478;2023-04-01T11:30:16;99121.00;;;12.80
12854;BMP180;6495;51.808;7.478;2023-04-01T11:33:17;99122.00;;;12.80
12854;BMP180;6495;51.808;7.478;2023-04-01T11:36:26;99123.00;;;12.80
12854;BMP180;6495;51.808;7.478;2023-04-01T11:39:32;99125.00;;;12.70
12854;BMP180;6495;51.808;7.478;2023-04-01T11:43:12;99140.00;;;12.80
12854;BMP180;6495;51.808;7.478;2023-04-01T11:50:16;99141.00;;;12.80
12854;BMP180;6495;51.808;7.478;2023-04-01T11:53:20;99147.00;;;12.90
12854;BMP180;6495;51.808;7.478;2023-04-01T11:56:48;99162.00;;;12.90
12854;BMP180;6495;51.808;7.478;2023-04-01T12:00:14;99151.00;;;12.90
12854;BMP180;6495;51.808;7.478;2023-04-01T12:03:33;99160.00;;;12.80
12854;BMP180;6495;51.808;7.478;2023-04-01T12:06:35;99173.00;;;12.80
12854;BMP180;6495;51.808;7.478;2023-04-01T12:09:44;99173.00;;;12.80
12854;BMP180;6495;51.808;7.478;2023-04-01T12:12:44;99173.00;;;12.80
12854;BMP180;6495;51.808;7.478;2023-04-01T12:16:29;99174.00;;;12.80
12854;BMP180;6495;51.808;7.478;2023-04-01T12:19:35;99176.00;;;12.90
12854;BMP180;6495;51.808;7.478;2023-04-01T12:22:46;99180.00;;;12.90
12854;BMP180;6495;51.808;7.478;2023-04-01T12:26:09;99183.00;;;12.90
12854;BMP180;6495;51.808;7.478;2023-04-01T12:32:43;99194.00;;;12.90
12854;BMP180;6495;51.808;7.478;2023-04-01T12:35:49;99191.00;;;13.00
12854;BMP180;6495;51.808;7.478;2023-04-01T12:39:05;99196.00;;;13.00
12854;BMP180;6495;51.808;7.478;2023-04-01T12:42:10;99198.00;;;13.00
12854;BMP180;6495;51.808;7.478;2023-04-01T12:45:29;99200.00;;;13.10
12854;BMP180;6495;51.808;7.478;2023-04-01T12:49:06;99204.00;;;13.10
12854;BMP180;6495;51.808;7.478;2023-04-01T12:52:08;99205.00;;;13.10
12854;BMP180;6495;51.808;7.478;2023-04-01T12:55:33;99207.00;;;13.30
12854;BMP180;6495;51.808;7.478;2023-04-01T12:59:11;99210.00;;;13.40
12854;BMP180;6495;51.808;7.478;2023-04-01T13:02:13;99218.00;;;13.50
12854;BMP180;6495;51.808;7.478;2023-04-01T13:05:25;99231.00;;;13.50
12854;BMP180;6495;51.808;7.478;2023-04-01T13:08:42;99233.00;;;13.50
12854;BMP180;6495;51.808;7.478;2023-04-01T13:11:46;99235.00;;;13.60
12854;BMP180;6495;51.808;7.478;2023-04-01T13:17:38;99242.00;;;13.60
12854;BMP180;6495;51.808;7.478;2023-04-01T13:20:43;99244.00;;;13.60
12854;BMP180;6495;51.808;7.478;2023-04-01T13:23:56;99248.00;;;13.70
12854;BMP180;6495;51.808;7.478;2023-04-01T13:26:57;99257.00;;;13.70
12854;BMP180;6495;51.808;7.478;2023-04-01T13:30:05;99253.00;;;13.70
12854;BMP180;6495;51.808;7.478;2023-04-01T13:33:13;99253.00;;;13.80
12854;BMP180;6495;51.808;7.478;2023-04-01T13:36:19;99251.00;;;13.90
12854;BMP180;6495;51.808;7.478;2023-04-01T13:39:32;99253.00;;;13.80
12854;BMP180;6495;51.808;7.478;2023-04-01T13:42:29;99256.00;;;13.80
12854;BMP180;6495;51.808;7.478;2023-04-01T13:45:24;99257.00;;;13.80
12854;BMP180;6495;51.808;7.478;2023-04-01T13:48:32;99275.00;;;13.80
12854;BMP180;6495;51.808;7.478;2023-04-01T13:52:01;99274.00;;;13.80
12854;BMP180;6495;51.808;7.478;2023-04-01T14:00:25;99278.00;;;13.80
12854;BMP180;6495;51.808;7.478;2023-04-01T14:03:30;99281.00;;;13.70
12854;BMP180;6495;51.808;7.478;2023-04-01T14:06:32;99287.00;;;13.70
12854;BMP180;6495;51.808;7.478;2023-04-01T14:09:41;99288.00;;;13.70
12854;BMP180;6495;51.808;7.478;2023-04-01T14:12:41;99287.00;;;13.70
12854;BMP180;6495;51.808;7.478;2023-04-01T14:15:53;99292.00;;;13.70
12854;BMP180;6495;51.808;7.478;2023-04-01T14:19:03;99297.00;;;13.70
12854;BMP180;6495;51.808;7.478;2023-04-01T14:22:05;99307.00;;;13.70
12854;BMP180;6495;51.808;7.478;2023-04-01T14:25:32;99306.00;;;13.70
12854;BMP180;6495;51.808;7.478;2023-04-01T14:28:33;99315.00;;;13.60
12854;BMP180;6495;51.808;7.478;2023-04-01T14:31:44;99315.00;;;13.60
12854;BMP180;6495;51.808;7.478;2023-04-01T14:34:55;99324.00;;;13.60
12854;BMP180;6495;51.808;7.478;2023-04-01T14:38:21;99323.00;;;13.70
12854;BMP180;6495;51.808;7.478;2023-04-01T14:41:28;99323.00;;;13.70
12854;BMP180;6495;51.808;7.478;2023-04-01T14:48:13;99332.00;;;13.70
12854;BMP180;6495;51.808;7.478;2023-04-01T14:51:16;99335.00;;;13.60
12854;BMP180;6495;51.808;7.478;2023-04-01T14:54:21;99343.00;;;13.60
12854;BMP180;6495;51.808;7.478;2023-04-01T14:57:45;99339.00;;;13.70
12854;BMP180;6495;51.808;7.478;2023-04-01T15:01:36;99352.00;;;13.70
12854;BMP180;6495;51.808;7.478;2023-04-01T15:05:10;99349.00;;;13.60
12854;BMP180;6495;51.808;7.478;2023-04-01T15:08:38;99365.00;;;13.60
12854;BMP180;6495;51.808;7.478;2023-04-01T15:12:17;99362.00;;;13.60
12854;BMP180;6495;51.808;7.478;2023-04-01T15:15:53;99368.00;;;13.50
12854;BMP180;6495;51.808;7.478;2023-04-01T15:19:22;99367.00;;;13.50
12854;BMP180;6495;51.808;7.478;2023-04-01T15:27:03;99383.00;;;13.40
12854;BMP180;6495;51.808;7.478;2023-04-01T15:33:58;99396.00;;;13.40
12854;BMP180;6495;51.808;7.478;2023-04-01T15:37:36;99405.00;;;13.40
12854;BMP180;6495;51.808;7.478;2023-04-01T15:40:48;99405.00;;;13.40
12854;BMP180;6495;51.808;7.478;2023-04-01T15:43:49;99411.00;;;13.30
12854;BMP180;6495;51.808;7.478;2023-04-01T15:46:45;99409.00;;;13.30
12854;BMP180;6495;51.808;7.478;2023-04-01T15:49:52;99424.00;;;13.40
12854;BMP180;6495;51.808;7.478;2023-04-01T15:53:02;99408.00;;;13.30
12854;BMP180;6495;51.808;7.478;2023-04-01T15:56:26;99420.00;;;13.30
12854;BMP180;6495;51.808;7.478;2023-04-01T15:59:55;99418.00;;;13.30
12854;BMP180;6495;51.808;7.478;2023-04-01T16:03:23;99431.00;;;13.30
12854;BMP180;6495;51.808;7.478;2023-04-01T16:06:53;99440.00;;;13.30
12854;BMP180;6495;51.808;7.478;2023-04-01T16:10:08;99435.00;;;13.30
12854;BMP180;6495;51.808;7.478;2023-04-01T16:13:24;99443.00;;;13.30
12854;BMP180;6495;51.808;7.478;2023-04-01T16:16:31;99443.00;;;13.30
12854;BMP180;6495;51.808;7.478;2023-04-01T16:19:52;99443.00;;;13.30
12854;BMP180;6495;51.808;7.478;2023-04-01T16:23:04;99455.00;;;13.30
12854;BMP180;6495;51.808;7.478;2023-04-01T16:26:09;99461.00;;;13.30
12854;BMP180;6495;51.808;7.478;2023-04-01T16:29:24;99465.00;;;13.40
12854;BMP180;6495;51.808;7.478;2023-04-01T16:32:54;99465.00;;;13.30
12854;BMP180;6495;51.808;7.478;2023-04-01T16:36:12;99475.00;;;13.30
12854;BMP180;6495;51.808;7.478;2023-04-01T16:39:32;99477.00;;;13.40
12854;BMP180;6495;51.808;7.478;2023-04-01T16:42:41;99481.00;;;13.40
12854;BMP180;6495;51.808;7.478;2023-04-01T16:45:40;99483.00;;;13.40
12854;BMP180;6495;51.808;7.478;2023-04-01T16:48:59;99484.00;;;13.40
12854;BMP180;6495;51.808;7.478;2023-04-01T16:52:00;99497.00;;;13.40
12854;BMP180;6495;51.808;7.478;2023-04-01T16:54:59;99503.00;;;13.40
12854;BMP180;6495;51.808;7.478;2023-04-01T16:57:52;99517.00;;;13.40
12854;BMP180;6495;51.808;7.478;2023-04-01T17:00:50;99504.00;;;13.30
12854;BMP180;6495;51.808;7.478;2023-04-01T17:03:45;99520.00;;;13.20
12854;BMP180;6495;51.808;7.478;2023-04-01T17:06:52;99520.00;;;13.20
12854;BMP180;6495;51.808;7.478;2023-04-01T17:10:02;99527.00;;;13.00
12854;BMP180;6495;51.808;7.478;2023-04-01T17:17:22;99543.00;;;13.00
12854;BMP180;6495;51.808;7.478;2023-04-01T17:20:40;99552.00;;;12.90
12854;BMP180;6495;51.808;7.478;2023-04-01T17:23:58;99553.00;;;12.80
12854;BMP180;6495;51.808;7.478;2023-04-01T17:27:01;99561.00;;;12.70
12854;BMP180;6495;51.808;7.478;2023-04-01T17:30:16;99566.00;;;12.70
12854;BMP180;6495;51.808;7.478;2023-04-01T17:36:58;99575.00;;;12.60
12854;BMP180;6495;51.808;7.478;2023-04-01T17:39:59;99583.00;;;12.50
12854;BMP180;6495;51.808;7.478;2023-04-01T17:43:03;99591.00;;;12.50
12854;BMP180;6495;51.808;7.478;2023-04-01T17:46:01;99605.00;;;12.40
12854;BMP180;6495;51.808;7.478;2023-04-01T17:48:57;99609.00;;;12.30
12854;BMP180;6495;51.808;7.478;2023-04-01T17:51:59;99618.00;;;12.30
12854;BMP180;6495;51.808;7.478;2023-04-01T17:55:03;99621.00;;;12.20
12854;BMP180;6495;51.808;7.478;2023-04-01T17:58:01;99637.00;;;12.10
12854;BMP180;6495;51.808;7.478;2023-04-01T18:01:29;99644.00;;;12.10
12854;BMP180;6495;51.808;7.478;2023-04-01T18:04:43;99651.00;;;12.00
12854;BMP180;6495;51.808;7.478;2023-04-01T18:08:46;99666.00;;;11.90
12854;BMP180;6495;51.808;7.478;2023-04-01T18:12:09;99664.00;;;11.70
12854;BMP180;6495;51.808;7.478;2023-04-01T18:15:59;99676.00;;;11.70
12854;BMP180;6495;51.808;7.478;2023-04-01T18:19:02;99670.00;;;11.60
12854;BMP180;6495;51.808;7.478;2023-04-01T18:22:15;99688.00;;;11.50
12854;BMP180;6495;51.808;7.478;2023-04-01T18:25:37;99687.00;;;11.50
12854;BMP180;6495;51.808;7.478;2023-04-01T18:28:49;99709.00;;;11.40
12854;BMP180;6495;51.808;7.478;2023-04-01T18:32:08;99710.00;;;11.40
12854;BMP180;6495;51.808;7.478;2023-04-01T18:35:27;99719.00;;;11.40
12854;BMP180;6495;51.808;7.478;2023-04-01T18:38:57;99728.00;;;11.30
12854;BMP180;6495;51.808;7.478;2023-04-01T18:43:04;99738.00;;;11.30
12854;BMP180;6495;51.808;7.478;2023-04-01T18:56:05;99768.00;;;11.00
12854;BMP180;6495;51.808;7.478;2023-04-01T18:59:46;99783.00;;;11.00
12854;BMP180;6495;51.808;7.478;2023-04-01T19:03:23;99792.00;;;11.00
12854;BMP180;6495;51.808;7.478;2023-04-01T19:06:50;99793.00;;;10.90
12854;BMP180;6495;51.808;7.478;2023-04-01T19:10:31;99798.00;;;10.80
12854;BMP180;6495;51.808;7.478;2023-04-01T19:13:53;99806.00;;;10.80
12854;BMP180;6495;51.808;7.478;2023-04-01T19:17:04;99823.00;;;10.70
12854;BMP180;6495;51.808;7.478;2023-04-01T19:20:13;99831.00;;;10.60
12854;BMP180;6495;51.808;7.478;2023-04-01T19:55:37;99901.00;;;10.00
12854;BMP180;6495;51.808;7.478;2023-04-01T19:58:38;99908.00;;;9.90
12854;BMP180;6495;51.808;7.478;2023-04-01T20:01:39;99907.00;;;9.90
12854;BMP180;6495;51.808;7.478;2023-04-01T20:04:37;99913.00;;;9.80
12854;BMP180;6495;51.808;7.478;2023-04-01T20:07:35;99922.00;;;9.70
12854;BMP180;6495;51.808;7.478;2023-04-01T20:10:35;99926.00;;;9.70
12854;BMP180;6495;51.808;7.478;2023-04-01T20:13:34;99950.00;;;9.70